sensor_id;sensor_type;location;lat;lon;timestamp;P1;durP1;ratioP1;P2;durP2;ratioP2
10416;SDS011;62605;49.432;8.680;2022-12-18T00:01:13;8.87;;;6.83;;
10416;SDS011;62605;49.432;8.680;2022-12-18T00:03:42;8.33;;;4.20;;
10416;SDS011;62605;49.432;8.680;2022-12-18T00:06:09;3.20;;;2.57;;
10416;SDS011;62605;49.432;8.680;2022-12-18T00:08:37;2.40;;;2.20;;
10416;SDS011;62605;49.432;8.680;2022-12-18T00:11:04;7.90;;;3.70;;
10416;SDS011;62605;49.432;8.680;2022-12-18T00:13:33;5.23;;;3.90;;
10416;SDS011;62605;49.432;8.680;2022-12-18T00:16:01;5.03;;;2.63;;
10416;SDS011;62605;49.432;8.680;2022-12-18T00:18:29;5.70;;;3.47;;
10416;SDS011;62605;49.432;8.680;2022-12-18T00:20:58;11.37;;;4.90;;
10416;SDS011;62605;49.432;8.680;2022-12-18T00:23:26;6.37;;;5.77;;
10416;SDS011;62605;49.432;8.680;2022-12-18T00:25:53;3.50;;;2.93;;
10416;SDS011;62605;49.432;8.680;2022-12-18T00:28:20;12.43;;;5.37;;
10416;SDS011;62605;49.432;8.680;2022-12-18T00:30:49;6.83;;;4.80;;
10416;SDS011;62605;49.432;8.680;2022-12-18T00:33:16;5.70;;;4.33;;
10416;SDS011;62605;49.432;8.680;2022-12-18T00:35:44;9.50;;;5.03;;
10416;SDS011;62605;49.432;8.680;2022-12-18T00:38:11;9.17;;;2.80;;
10416;SDS011;62605;49.432;8.680;2022-12-18T00:40:38;3.43;;;2.87;;
10416;SDS011;62605;49.432;8.680;2022-12-18T00:43:05;5.03;;;4.47;;
10416;SDS011;62605;49.432;8.680;2022-12-18T00:45:31;11.90;;;4.70;;
10416;SDS011;62605;49.432;8.680;2022-12-18T00:47:59;4.83;;;4.23;;
10416;SDS011;62605;49.432;8.680;2022-12-18T00:50:26;6.43;;;5.60;;
10416;SDS011;62605;49.432;8.680;2022-12-18T00:52:53;9.40;;;4.97;;
10416;SDS011;62605;49.432;8.680;2022-12-18T00:55:21;12.37;;;6.13;;
10416;SDS011;62605;49.432;8.680;2022-12-18T00:57:48;8.63;;;6.67;;
10416;SDS011;62605;49.432;8.680;2022-12-18T01:00:17;5.50;;;3.67;;
10416;SDS011;62605;49.432;8.680;2022-12-18T01:02:44;4.23;;;3.70;;
10416;SDS011;62605;49.432;8.680;2022-12-18T01:05:13;7.70;;;4.13;;
10416;SDS011;62605;49.432;8.680;2022-12-18T01:07:40;8.07;;;4.67;;
10416;SDS011;62605;49.432;8.680;2022-12-18T01:10:09;9.10;;;5.40;;
10416;SDS011;62605;49.432;8.680;2022-12-18T01:12:37;6.53;;;3.70;;
10416;SDS011;62605;49.432;8.680;2022-12-18T01:15:05;8.00;;;5.10;;
10416;SDS011;62605;49.432;8.680;2022-12-18T01:17:34;6.07;;;2.73;;
10416;SDS011;62605;49.432;8.680;2022-12-18T01:20:01;19.30;;;6.23;;
10416;SDS011;62605;49.432;8.680;2022-12-18T01:22:30;6.57;;;3.90;;
10416;SDS011;62605;49.432;8.680;2022-12-18T01:24:56;11.97;;;5.53;;
10416;SDS011;62605;49.432;8.680;2022-12-18T01:27:24;6.03;;;4.23;;
10416;SDS011;62605;49.432;8.680;2022-12-18T01:29:51;14.67;;;4.70;;
10416;SDS011;62605;49.432;8.680;2022-12-18T01:32:18;5.43;;;4.27;;
10416;SDS011;62605;49.432;8.680;2022-12-18T01:34:45;8.53;;;4.40;;
10416;SDS011;62605;49.432;8.680;2022-12-18T01:37:12;9.63;;;5.40;;
10416;SDS011;62605;49.432;8.680;2022-12-18T01:39:40;13.20;;;6.17;;
10416;SDS011;62605;49.432;8.680;2022-12-18T01:42:09;13.23;;;5.90;;
10416;SDS011;62605;49.432;8.680;2022-12-18T01:44:59;9.67;;;5.57;;
10416;SDS011;62605;49.432;8.680;2022-12-18T01:47:30;6.07;;;3.77;;
10416;SDS011;62605;49.432;8.680;2022-12-18T01:50:03;7.00;;;4.27;;
10416;SDS011;62605;49.432;8.680;2022-12-18T01:52:33;5.07;;;3.23;;
10416;SDS011;62605;49.432;8.680;2022-12-18T01:55:03;5.97;;;3.67;;
10416;SDS011;62605;49.432;8.680;2022-12-18T01:57:33;9.57;;;4.47;;
10416;SDS011;62605;49.432;8.680;2022-12-18T02:00:01;10.23;;;3.63;;
10416;SDS011;62605;49.432;8.680;2022-12-18T02:02:31;14.73;;;5.43;;
10416;SDS011;62605;49.432;8.680;2022-12-18T02:04:58;7.03;;;4.37;;
10416;SDS011;62605;49.432;8.680;2022-12-18T02:07:28;5.63;;;3.67;;
10416;SDS011;62605;49.432;8.680;2022-12-18T02:10:05;13.47;;;5.53;;
10416;SDS011;62605;49.432;8.680;2022-12-18T02:12:40;5.47;;;3.37;;
10416;SDS011;62605;49.432;8.680;2022-12-18T02:15:13;9.17;;;5.63;;
10416;SDS011;62605;49.432;8.680;2022-12-18T02:17:44;5.13;;;3.83;;
10416;SDS011;62605;49.432;8.680;2022-12-18T02:20:16;2.70;;;2.60;;
10416;SDS011;62605;49.432;8.680;2022-12-18T02:22:50;7.70;;;4.27;;
10416;SDS011;62605;49.432;8.680;2022-12-18T02:25:42;10.77;;;5.00;;
10416;SDS011;62605;49.432;8.680;2022-12-18T02:28:31;4.30;;;2.40;;
10416;SDS011;62605;49.432;8.680;2022-12-18T02:31:04;9.40;;;5.00;;
10416;SDS011;62605;49.432;8.680;2022-12-18T02:33:34;13.73;;;4.50;;
10416;SDS011;62605;49.432;8.680;2022-12-18T02:36:03;14.80;;;5.43;;
10416;SDS011;62605;49.432;8.680;2022-12-18T02:38:31;13.87;;;4.13;;
10416;SDS011;62605;49.432;8.680;2022-12-18T02:41:00;6.10;;;5.57;;
10416;SDS011;62605;49.432;8.680;2022-12-18T02:43:30;12.90;;;5.83;;
10416;SDS011;62605;49.432;8.680;2022-12-18T02:45:57;9.53;;;6.03;;
10416;SDS011;62605;49.432;8.680;2022-12-18T02:48:27;11.67;;;4.30;;
10416;SDS011;62605;49.432;8.680;2022-12-18T02:50:59;3.87;;;3.57;;
10416;SDS011;62605;49.432;8.680;2022-12-18T02:53:33;4.00;;;2.83;;
10416;SDS011;62605;49.432;8.680;2022-12-18T02:56:07;10.73;;;5.60;;
10416;SDS011;62605;49.432;8.680;2022-12-18T02:58:41;4.77;;;4.00;;
10416;SDS011;62605;49.432;8.680;2022-12-18T03:01:14;3.93;;;3.57;;
10416;SDS011;62605;49.432;8.680;2022-12-18T03:03:46;12.40;;;5.27;;
10416;SDS011;62605;49.432;8.680;2022-12-18T03:06:20;6.00;;;4.50;;
10416;SDS011;62605;49.432;8.680;2022-12-18T03:08:51;3.80;;;3.50;;
10416;SDS011;62605;49.432;8.680;2022-12-18T03:11:25;8.67;;;3.30;;
10416;SDS011;62605;49.432;8.680;2022-12-18T03:14:11;7.73;;;5.10;;
10416;SDS011;62605;49.432;8.680;2022-12-18T03:16:42;3.20;;;2.43;;
10416;SDS011;62605;49.432;8.680;2022-12-18T03:19:11;5.77;;;3.50;;
10416;SDS011;62605;49.432;8.680;2022-12-18T03:21:43;4.73;;;3.47;;
10416;SDS011;62605;49.432;8.680;2022-12-18T03:24:14;8.97;;;4.00;;
10416;SDS011;62605;49.432;8.680;2022-12-18T03:26:45;6.87;;;3.70;;
10416;SDS011;62605;49.432;8.680;2022-12-18T03:29:17;5.33;;;3.97;;
10416;SDS011;62605;49.432;8.680;2022-12-18T03:31:48;7.17;;;5.43;;
10416;SDS011;62605;49.432;8.680;2022-12-18T03:34:21;8.43;;;4.93;;
10416;SDS011;62605;49.432;8.680;2022-12-18T03:36:50;4.43;;;3.23;;
10416;SDS011;62605;49.432;8.680;2022-12-18T03:39:17;8.60;;;4.80;;
10416;SDS011;62605;49.432;8.680;2022-12-18T03:41:47;11.43;;;5.70;;
10416;SDS011;62605;49.432;8.680;2022-12-18T03:44:19;14.40;;;4.00;;
10416;SDS011;62605;49.432;8.680;2022-12-18T03:46:53;0.77;;;0.77;;
10416;SDS011;62605;49.432;8.680;2022-12-18T03:49:25;8.17;;;4.87;;
10416;SDS011;62605;49.432;8.680;2022-12-18T03:51:57;5.90;;;2.77;;
10416;SDS011;62605;49.432;8.680;2022-12-18T03:54:29;1.93;;;1.83;;
10416;SDS011;62605;49.432;8.680;2022-12-18T03:57:06;3.50;;;1.87;;
10416;SDS011;62605;49.432;8.680;2022-12-18T03:59:36;8.67;;;4.20;;
10416;SDS011;62605;49.432;8.680;2022-12-18T04:02:05;4.30;;;3.13;;
10416;SDS011;62605;49.432;8.680;2022-12-18T04:04:34;14.80;;;2.53;;
10416;SDS011;62605;49.432;8.680;2022-12-18T04:07:03;7.63;;;4.17;;
10416;SDS011;62605;49.432;8.680;2022-12-18T04:09:31;2.57;;;1.70;;
10416;SDS011;62605;49.432;8.680;2022-12-18T04:12:01;9.10;;;2.83;;
10416;SDS011;62605;49.432;8.680;2022-12-18T04:14:28;3.90;;;3.37;;
10416;SDS011;62605;49.432;8.680;2022-12-18T04:16:55;9.50;;;4.50;;
10416;SDS011;62605;49.432;8.680;2022-12-18T04:19:22;7.70;;;3.33;;
10416;SDS011;62605;49.432;8.680;2022-12-18T04:21:49;3.57;;;2.43;;
10416;SDS011;62605;49.432;8.680;2022-12-18T04:24:16;3.03;;;2.80;;
10416;SDS011;62605;49.432;8.680;2022-12-18T04:26:43;6.00;;;3.60;;
10416;SDS011;62605;49.432;8.680;2022-12-18T04:29:11;4.80;;;3.30;;
10416;SDS011;62605;49.432;8.680;2022-12-18T04:31:38;4.00;;;2.97;;
10416;SDS011;62605;49.432;8.680;2022-12-18T04:34:05;7.60;;;5.33;;
10416;SDS011;62605;49.432;8.680;2022-12-18T04:36:32;4.10;;;2.23;;
10416;SDS011;62605;49.432;8.680;2022-12-18T04:38:59;13.83;;;5.50;;
10416;SDS011;62605;49.432;8.680;2022-12-18T04:41:26;6.30;;;3.37;;
10416;SDS011;62605;49.432;8.680;2022-12-18T04:43:53;8.70;;;4.93;;
10416;SDS011;62605;49.432;8.680;2022-12-18T04:46:21;7.13;;;3.67;;
10416;SDS011;62605;49.432;8.680;2022-12-18T04:48:48;7.93;;;4.00;;
10416;SDS011;62605;49.432;8.680;2022-12-18T04:51:15;3.60;;;3.30;;
10416;SDS011;62605;49.432;8.680;2022-12-18T04:53:43;3.97;;;2.97;;
10416;SDS011;62605;49.432;8.680;2022-12-18T04:56:11;6.90;;;2.50;;
10416;SDS011;62605;49.432;8.680;2022-12-18T04:58:41;9.77;;;3.90;;
10416;SDS011;62605;49.432;8.680;2022-12-18T05:01:11;8.80;;;3.13;;
10416;SDS011;62605;49.432;8.680;2022-12-18T05:03:43;3.33;;;2.50;;
10416;SDS011;62605;49.432;8.680;2022-12-18T05:06:10;5.70;;;3.83;;
10416;SDS011;62605;49.432;8.680;2022-12-18T05:08:39;3.90;;;2.43;;
10416;SDS011;62605;49.432;8.680;2022-12-18T05:11:09;8.23;;;2.97;;
10416;SDS011;62605;49.432;8.680;2022-12-18T05:13:39;8.50;;;4.67;;
10416;SDS011;62605;49.432;8.680;2022-12-18T05:16:07;7.47;;;4.80;;
10416;SDS011;62605;49.432;8.680;2022-12-18T05:18:34;10.57;;;4.63;;
10416;SDS011;62605;49.432;8.680;2022-12-18T05:21:05;4.37;;;3.43;;
10416;SDS011;62605;49.432;8.680;2022-12-18T05:23:33;9.57;;;6.23;;
10416;SDS011;62605;49.432;8.680;2022-12-18T05:26:03;7.23;;;4.30;;
10416;SDS011;62605;49.432;8.680;2022-12-18T05:28:34;4.87;;;3.63;;
10416;SDS011;62605;49.432;8.680;2022-12-18T05:31:03;8.07;;;4.73;;
10416;SDS011;62605;49.432;8.680;2022-12-18T05:33:32;7.30;;;3.27;;
10416;SDS011;62605;49.432;8.680;2022-12-18T05:36:03;2.27;;;2.17;;
10416;SDS011;62605;49.432;8.680;2022-12-18T05:38:33;9.37;;;3.60;;
10416;SDS011;62605;49.432;8.680;2022-12-18T05:41:04;4.70;;;4.30;;
10416;SDS011;62605;49.432;8.680;2022-12-18T05:43:33;5.50;;;3.90;;
10416;SDS011;62605;49.432;8.680;2022-12-18T05:46:04;4.57;;;4.20;;
10416;SDS011;62605;49.432;8.680;2022-12-18T05:48:33;9.50;;;4.33;;
10416;SDS011;62605;49.432;8.680;2022-12-18T05:51:07;6.33;;;4.00;;
10416;SDS011;62605;49.432;8.680;2022-12-18T05:53:36;2.13;;;1.90;;
10416;SDS011;62605;49.432;8.680;2022-12-18T05:56:06;5.17;;;3.03;;
10416;SDS011;62605;49.432;8.680;2022-12-18T05:58:37;12.57;;;3.57;;
10416;SDS011;62605;49.432;8.680;2022-12-18T06:01:08;1.37;;;1.30;;
10416;SDS011;62605;49.432;8.680;2022-12-18T06:03:38;1.67;;;1.57;;
10416;SDS011;62605;49.432;8.680;2022-12-18T06:06:17;6.27;;;3.50;;
10416;SDS011;62605;49.432;8.680;2022-12-18T06:08:46;7.97;;;3.50;;
10416;SDS011;62605;49.432;8.680;2022-12-18T06:11:16;4.13;;;2.63;;
10416;SDS011;62605;49.432;8.680;2022-12-18T06:13:45;6.30;;;4.17;;
10416;SDS011;62605;49.432;8.680;2022-12-18T06:16:13;7.17;;;2.40;;
10416;SDS011;62605;49.432;8.680;2022-12-18T06:18:41;5.07;;;1.63;;
10416;SDS011;62605;49.432;8.680;2022-12-18T06:21:08;4.97;;;3.10;;
10416;SDS011;62605;49.432;8.680;2022-12-18T06:23:37;3.57;;;3.27;;
10416;SDS011;62605;49.432;8.680;2022-12-18T06:26:05;4.37;;;2.27;;
10416;SDS011;62605;49.432;8.680;2022-12-18T06:28:32;4.93;;;2.40;;
10416;SDS011;62605;49.432;8.680;2022-12-18T06:31:00;4.30;;;2.80;;
10416;SDS011;62605;49.432;8.680;2022-12-18T06:33:28;2.00;;;1.90;;
10416;SDS011;62605;49.432;8.680;2022-12-18T06:35:59;4.20;;;3.80;;
10416;SDS011;62605;49.432;8.680;2022-12-18T06:38:27;8.17;;;3.43;;
10416;SDS011;62605;49.432;8.680;2022-12-18T06:40:56;5.77;;;3.97;;
10416;SDS011;62605;49.432;8.680;2022-12-18T06:43:23;1.83;;;1.73;;
10416;SDS011;62605;49.432;8.680;2022-12-18T06:45:50;4.10;;;2.57;;
10416;SDS011;62605;49.432;8.680;2022-12-18T06:48:24;6.53;;;4.40;;
10416;SDS011;62605;49.432;8.680;2022-12-18T06:50:52;11.85;;;5.45;;
10416;SDS011;62605;49.432;8.680;2022-12-18T06:53:19;7.77;;;3.00;;
10416;SDS011;62605;49.432;8.680;2022-12-18T06:55:48;7.23;;;4.77;;
10416;SDS011;62605;49.432;8.680;2022-12-18T06:58:17;6.20;;;3.33;;
10416;SDS011;62605;49.432;8.680;2022-12-18T07:00:44;6.17;;;3.77;;
10416;SDS011;62605;49.432;8.680;2022-12-18T07:03:11;4.17;;;2.63;;
10416;SDS011;62605;49.432;8.680;2022-12-18T07:05:39;6.37;;;5.23;;
10416;SDS011;62605;49.432;8.680;2022-12-18T07:08:08;10.33;;;4.60;;
10416;SDS011;62605;49.432;8.680;2022-12-18T07:10:40;5.87;;;3.77;;
10416;SDS011;62605;49.432;8.680;2022-12-18T07:13:10;5.00;;;3.00;;
10416;SDS011;62605;49.432;8.680;2022-12-18T07:15:38;7.67;;;5.23;;
10416;SDS011;62605;49.432;8.680;2022-12-18T07:18:05;10.17;;;3.70;;
10416;SDS011;62605;49.432;8.680;2022-12-18T07:20:33;11.27;;;4.13;;
10416;SDS011;62605;49.432;8.680;2022-12-18T07:23:01;14.10;;;2.97;;
10416;SDS011;62605;49.432;8.680;2022-12-18T07:25:28;14.00;;;5.13;;
10416;SDS011;62605;49.432;8.680;2022-12-18T07:27:55;7.20;;;2.33;;
10416;SDS011;62605;49.432;8.680;2022-12-18T07:30:22;4.50;;;3.30;;
10416;SDS011;62605;49.432;8.680;2022-12-18T07:32:53;7.30;;;4.90;;
10416;SDS011;62605;49.432;8.680;2022-12-18T07:35:20;4.90;;;3.23;;
10416;SDS011;62605;49.432;8.680;2022-12-18T07:37:49;3.73;;;3.33;;
10416;SDS011;62605;49.432;8.680;2022-12-18T07:40:16;1.73;;;1.63;;
10416;SDS011;62605;49.432;8.680;2022-12-18T07:42:44;5.53;;;3.63;;
10416;SDS011;62605;49.432;8.680;2022-12-18T07:45:11;8.60;;;5.37;;
10416;SDS011;62605;49.432;8.680;2022-12-18T07:47:42;5.53;;;3.90;;
10416;SDS011;62605;49.432;8.680;2022-12-18T07:50:16;6.00;;;2.83;;
10416;SDS011;62605;49.432;8.680;2022-12-18T07:52:49;4.33;;;2.90;;
10416;SDS011;62605;49.432;8.680;2022-12-18T07:55:16;6.27;;;5.40;;
10416;SDS011;62605;49.432;8.680;2022-12-18T07:57:44;4.67;;;3.70;;
10416;SDS011;62605;49.432;8.680;2022-12-18T08:00:12;9.60;;;4.57;;
10416;SDS011;62605;49.432;8.680;2022-12-18T08:02:40;5.37;;;4.00;;
10416;SDS011;62605;49.432;8.680;2022-12-18T08:05:08;6.03;;;3.90;;
10416;SDS011;62605;49.432;8.680;2022-12-18T08:07:38;4.30;;;3.23;;
10416;SDS011;62605;49.432;8.680;2022-12-18T08:10:07;23.40;;;4.97;;
10416;SDS011;62605;49.432;8.680;2022-12-18T08:12:34;2.67;;;2.27;;
10416;SDS011;62605;49.432;8.680;2022-12-18T08:15:01;15.07;;;4.23;;
10416;SDS011;62605;49.432;8.680;2022-12-18T08:17:29;5.87;;;3.47;;
10416;SDS011;62605;49.432;8.680;2022-12-18T08:19:56;8.00;;;4.77;;
10416;SDS011;62605;49.432;8.680;2022-12-18T08:22:24;5.90;;;2.37;;
10416;SDS011;62605;49.432;8.680;2022-12-18T08:24:53;5.40;;;3.77;;
10416;SDS011;62605;49.432;8.680;2022-12-18T08:27:20;8.77;;;5.67;;
10416;SDS011;62605;49.432;8.680;2022-12-18T08:29:47;3.97;;;3.37;;
10416;SDS011;62605;49.432;8.680;2022-12-18T08:32:14;4.73;;;3.10;;
10416;SDS011;62605;49.432;8.680;2022-12-18T08:34:41;2.30;;;2.03;;
10416;SDS011;62605;49.432;8.680;2022-12-18T08:37:08;5.03;;;3.60;;
10416;SDS011;62605;49.432;8.680;2022-12-18T08:39:35;3.03;;;2.83;;
10416;SDS011;62605;49.432;8.680;2022-12-18T08:42:04;4.27;;;3.87;;
10416;SDS011;62605;49.432;8.680;2022-12-18T08:44:48;7.07;;;3.90;;
10416;SDS011;62605;49.432;8.680;2022-12-18T08:47:15;5.03;;;4.20;;
10416;SDS011;62605;49.432;8.680;2022-12-18T08:49:42;5.77;;;3.90;;
10416;SDS011;62605;49.432;8.680;2022-12-18T08:52:09;4.53;;;3.70;;
10416;SDS011;62605;49.432;8.680;2022-12-18T08:54:37;9.90;;;4.30;;
10416;SDS011;62605;49.432;8.680;2022-12-18T08:57:05;8.03;;;2.27;;
10416;SDS011;62605;49.432;8.680;2022-12-18T08:59:32;9.20;;;4.80;;
10416;SDS011;62605;49.432;8.680;2022-12-18T09:02:01;4.27;;;3.00;;
10416;SDS011;62605;49.432;8.680;2022-12-18T09:04:29;12.07;;;6.70;;
10416;SDS011;62605;49.432;8.680;2022-12-18T09:06:59;2.50;;;2.30;;
10416;SDS011;62605;49.432;8.680;2022-12-18T09:09:27;4.40;;;3.83;;
10416;SDS011;62605;49.432;8.680;2022-12-18T09:11:54;7.10;;;3.30;;
10416;SDS011;62605;49.432;8.680;2022-12-18T09:14:23;13.30;;;4.70;;
10416;SDS011;62605;49.432;8.680;2022-12-18T09:16:50;7.50;;;4.17;;
10416;SDS011;62605;49.432;8.680;2022-12-18T09:19:17;9.23;;;3.33;;
10416;SDS011;62605;49.432;8.680;2022-12-18T09:21:44;8.27;;;4.93;;
10416;SDS011;62605;49.432;8.680;2022-12-18T09:24:11;13.33;;;4.43;;
10416;SDS011;62605;49.432;8.680;2022-12-18T09:26:39;17.53;;;5.97;;
10416;SDS011;62605;49.432;8.680;2022-12-18T09:29:06;10.07;;;4.37;;
10416;SDS011;62605;49.432;8.680;2022-12-18T09:31:35;7.10;;;3.23;;
10416;SDS011;62605;49.432;8.680;2022-12-18T09:34:05;5.47;;;4.37;;
10416;SDS011;62605;49.432;8.680;2022-12-18T09:36:33;8.00;;;4.30;;
10416;SDS011;62605;49.432;8.680;2022-12-18T09:39:00;6.13;;;2.90;;
10416;SDS011;62605;49.432;8.680;2022-12-18T09:41:36;8.33;;;3.90;;
10416;SDS011;62605;49.432;8.680;2022-12-18T09:44:12;10.80;;;3.87;;
10416;SDS011;62605;49.432;8.680;2022-12-18T09:46:47;12.07;;;5.57;;
10416;SDS011;62605;49.432;8.680;2022-12-18T09:49:19;23.10;;;6.27;;
10416;SDS011;62605;49.432;8.680;2022-12-18T09:51:52;10.70;;;7.27;;
10416;SDS011;62605;49.432;8.680;2022-12-18T09:54:24;2.53;;;1.03;;
10416;SDS011;62605;49.432;8.680;2022-12-18T09:56:59;7.83;;;2.77;;
10416;SDS011;62605;49.432;8.680;2022-12-18T09:59:32;10.33;;;5.27;;
10416;SDS011;62605;49.432;8.680;2022-12-18T10:02:12;7.80;;;4.30;;
10416;SDS011;62605;49.432;8.680;2022-12-18T10:04:41;7.63;;;4.40;;
10416;SDS011;62605;49.432;8.680;2022-12-18T10:07:10;15.80;;;6.90;;
10416;SDS011;62605;49.432;8.680;2022-12-18T10:09:41;21.33;;;6.37;;
10416;SDS011;62605;49.432;8.680;2022-12-18T10:12:16;11.43;;;5.93;;
10416;SDS011;62605;49.432;8.680;2022-12-18T10:14:51;12.63;;;5.77;;
10416;SDS011;62605;49.432;8.680;2022-12-18T10:17:26;13.20;;;5.23;;
10416;SDS011;62605;49.432;8.680;2022-12-18T10:19:59;8.67;;;5.30;;
10416;SDS011;62605;49.432;8.680;2022-12-18T10:22:35;7.77;;;5.57;;
10416;SDS011;62605;49.432;8.680;2022-12-18T10:25:15;1.33;;;1.23;;
10416;SDS011;62605;49.432;8.680;2022-12-18T10:27:47;11.03;;;6.80;;
10416;SDS011;62605;49.432;8.680;2022-12-18T10:30:18;10.03;;;5.80;;
10416;SDS011;62605;49.432;8.680;2022-12-18T10:32:49;10.10;;;6.23;;
10416;SDS011;62605;49.432;8.680;2022-12-18T10:35:17;11.87;;;5.50;;
10416;SDS011;62605;49.432;8.680;2022-12-18T10:38:06;16.73;;;7.00;;
10416;SDS011;62605;49.432;8.680;2022-12-18T10:40:50;12.30;;;5.57;;
10416;SDS011;62605;49.432;8.680;2022-12-18T10:43:23;13.47;;;4.97;;
10416;SDS011;62605;49.432;8.680;2022-12-18T10:46:02;13.47;;;5.70;;
10416;SDS011;62605;49.432;8.680;2022-12-18T10:48:48;19.73;;;7.93;;
10416;SDS011;62605;49.432;8.680;2022-12-18T10:51:19;11.00;;;5.37;;
10416;SDS011;62605;49.432;8.680;2022-12-18T10:53:51;11.23;;;6.10;;
10416;SDS011;62605;49.432;8.680;2022-12-18T10:56:21;7.83;;;4.60;;
10416;SDS011;62605;49.432;8.680;2022-12-18T10:58:55;10.17;;;4.27;;
10416;SDS011;62605;49.432;8.680;2022-12-18T11:01:23;11.40;;;5.10;;
10416;SDS011;62605;49.432;8.680;2022-12-18T11:04:00;7.60;;;4.17;;
10416;SDS011;62605;49.432;8.680;2022-12-18T11:06:33;10.07;;;6.13;;
10416;SDS011;62605;49.432;8.680;2022-12-18T11:09:01;18.00;;;7.40;;
10416;SDS011;62605;49.432;8.680;2022-12-18T11:11:30;14.90;;;8.10;;
10416;SDS011;62605;49.432;8.680;2022-12-18T11:13:59;14.47;;;7.30;;
10416;SDS011;62605;49.432;8.680;2022-12-18T11:16:30;16.13;;;6.60;;
10416;SDS011;62605;49.432;8.680;2022-12-18T11:19:13;9.73;;;6.93;;
10416;SDS011;62605;49.432;8.680;2022-12-18T11:21:47;15.20;;;6.13;;
10416;SDS011;62605;49.432;8.680;2022-12-18T11:24:19;16.03;;;6.33;;
10416;SDS011;62605;49.432;8.680;2022-12-18T11:26:53;17.60;;;7.27;;
10416;SDS011;62605;49.432;8.680;2022-12-18T11:29:22;12.40;;;7.20;;
10416;SDS011;62605;49.432;8.680;2022-12-18T11:31:57;10.20;;;6.60;;
10416;SDS011;62605;49.432;8.680;2022-12-18T11:34:59;14.47;;;7.33;;
10416;SDS011;62605;49.432;8.680;2022-12-18T11:37:35;20.77;;;9.23;;
10416;SDS011;62605;49.432;8.680;2022-12-18T11:40:06;13.73;;;7.10;;
10416;SDS011;62605;49.432;8.680;2022-12-18T11:42:38;18.77;;;8.63;;
10416;SDS011;62605;49.432;8.680;2022-12-18T11:45:15;21.30;;;8.27;;
10416;SDS011;62605;49.432;8.680;2022-12-18T11:47:52;15.73;;;7.10;;
10416;SDS011;62605;49.432;8.680;2022-12-18T11:50:31;18.80;;;7.10;;
10416;SDS011;62605;49.432;8.680;2022-12-18T11:53:09;11.37;;;7.23;;
10416;SDS011;62605;49.432;8.680;2022-12-18T11:55:41;16.93;;;7.67;;
10416;SDS011;62605;49.432;8.680;2022-12-18T11:58:24;13.37;;;7.43;;
10416;SDS011;62605;49.432;8.680;2022-12-18T12:01:06;22.20;;;10.37;;
10416;SDS011;62605;49.432;8.680;2022-12-18T12:03:54;13.90;;;6.33;;
10416;SDS011;62605;49.432;8.680;2022-12-18T12:06:41;17.13;;;8.13;;
10416;SDS011;62605;49.432;8.680;2022-12-18T12:09:21;21.73;;;9.13;;
10416;SDS011;62605;49.432;8.680;2022-12-18T12:12:02;13.40;;;7.07;;
10416;SDS011;62605;49.432;8.680;2022-12-18T12:14:46;13.20;;;7.37;;
10416;SDS011;62605;49.432;8.680;2022-12-18T12:17:25;15.33;;;6.90;;
10416;SDS011;62605;49.432;8.680;2022-12-18T12:20:02;14.53;;;6.30;;
10416;SDS011;62605;49.432;8.680;2022-12-18T12:22:40;15.53;;;7.17;;
10416;SDS011;62605;49.432;8.680;2022-12-18T12:25:27;11.23;;;5.70;;
10416;SDS011;62605;49.432;8.680;2022-12-18T12:28:14;13.87;;;4.93;;
10416;SDS011;62605;49.432;8.680;2022-12-18T12:31:05;13.07;;;7.73;;
10416;SDS011;62605;49.432;8.680;2022-12-18T12:33:40;11.43;;;6.07;;
10416;SDS011;62605;49.432;8.680;2022-12-18T12:36:20;17.87;;;6.73;;
10416;SDS011;62605;49.432;8.680;2022-12-18T12:39:00;17.03;;;7.37;;
10416;SDS011;62605;49.432;8.680;2022-12-18T12:41:31;15.33;;;6.37;;
10416;SDS011;62605;49.432;8.680;2022-12-18T12:44:19;16.37;;;6.80;;
10416;SDS011;62605;49.432;8.680;2022-12-18T12:46:56;23.30;;;7.23;;
10416;SDS011;62605;49.432;8.680;2022-12-18T12:49:30;21.50;;;7.70;;
10416;SDS011;62605;49.432;8.680;2022-12-18T12:52:03;19.20;;;7.93;;
10416;SDS011;62605;49.432;8.680;2022-12-18T12:54:40;13.73;;;6.40;;
10416;SDS011;62605;49.432;8.680;2022-12-18T12:57:11;10.37;;;4.70;;
10416;SDS011;62605;49.432;8.680;2022-12-18T12:59:47;20.53;;;6.40;;
10416;SDS011;62605;49.432;8.680;2022-12-18T13:02:20;16.77;;;6.40;;
10416;SDS011;62605;49.432;8.680;2022-12-18T13:04:56;17.23;;;6.33;;
10416;SDS011;62605;49.432;8.680;2022-12-18T13:07:31;19.17;;;5.97;;
10416;SDS011;62605;49.432;8.680;2022-12-18T13:10:20;9.20;;;6.07;;
10416;SDS011;62605;49.432;8.680;2022-12-18T13:12:58;13.23;;;6.37;;
10416;SDS011;62605;49.432;8.680;2022-12-18T13:15:28;15.77;;;7.00;;
10416;SDS011;62605;49.432;8.680;2022-12-18T13:18:03;17.10;;;7.50;;
10416;SDS011;62605;49.432;8.680;2022-12-18T13:20:33;16.63;;;6.47;;
10416;SDS011;62605;49.432;8.680;2022-12-18T13:23:01;14.00;;;7.13;;
10416;SDS011;62605;49.432;8.680;2022-12-18T13:25:46;15.57;;;6.90;;
10416;SDS011;62605;49.432;8.680;2022-12-18T13:28:13;13.73;;;6.40;;
10416;SDS011;62605;49.432;8.680;2022-12-18T13:30:46;18.37;;;6.53;;
10416;SDS011;62605;49.432;8.680;2022-12-18T13:36:15;17.30;;;7.00;;
10416;SDS011;62605;49.432;8.680;2022-12-18T13:41:53;10.33;;;5.00;;
10416;SDS011;62605;49.432;8.680;2022-12-18T13:45:01;18.67;;;7.03;;
10416;SDS011;62605;49.432;8.680;2022-12-18T13:47:31;8.97;;;5.83;;
10416;SDS011;62605;49.432;8.680;2022-12-18T13:49:59;11.80;;;6.97;;
10416;SDS011;62605;49.432;8.680;2022-12-18T13:52:28;14.23;;;7.53;;
10416;SDS011;62605;49.432;8.680;2022-12-18T13:55:02;14.37;;;6.63;;
10416;SDS011;62605;49.432;8.680;2022-12-18T13:57:35;18.50;;;7.80;;
10416;SDS011;62605;49.432;8.680;2022-12-18T14:00:22;16.60;;;8.07;;
10416;SDS011;62605;49.432;8.680;2022-12-18T14:02:51;13.07;;;7.03;;
10416;SDS011;62605;49.432;8.680;2022-12-18T14:05:21;14.77;;;7.60;;
10416;SDS011;62605;49.432;8.680;2022-12-18T14:07:49;11.67;;;5.80;;
10416;SDS011;62605;49.432;8.680;2022-12-18T14:10:16;14.50;;;6.07;;
10416;SDS011;62605;49.432;8.680;2022-12-18T14:12:46;13.77;;;7.40;;
10416;SDS011;62605;49.432;8.680;2022-12-18T14:15:24;24.47;;;11.93;;
10416;SDS011;62605;49.432;8.680;2022-12-18T14:17:59;20.63;;;9.97;;
10416;SDS011;62605;49.432;8.680;2022-12-18T14:20:28;19.90;;;10.23;;
10416;SDS011;62605;49.432;8.680;2022-12-18T14:22:57;14.80;;;7.57;;
10416;SDS011;62605;49.432;8.680;2022-12-18T14:25:25;18.70;;;7.40;;
10416;SDS011;62605;49.432;8.680;2022-12-18T14:28:02;18.10;;;8.87;;
10416;SDS011;62605;49.432;8.680;2022-12-18T14:30:37;19.87;;;8.60;;
10416;SDS011;62605;49.432;8.680;2022-12-18T14:33:08;21.93;;;9.57;;
10416;SDS011;62605;49.432;8.680;2022-12-18T14:35:39;19.50;;;8.47;;
10416;SDS011;62605;49.432;8.680;2022-12-18T14:38:18;26.33;;;9.30;;
10416;SDS011;62605;49.432;8.680;2022-12-18T14:40:51;18.67;;;7.93;;
10416;SDS011;62605;49.432;8.680;2022-12-18T14:43:20;22.23;;;9.27;;
10416;SDS011;62605;49.432;8.680;2022-12-18T14:45:47;20.90;;;7.77;;
10416;SDS011;62605;49.432;8.680;2022-12-18T14:48:15;15.17;;;6.30;;
10416;SDS011;62605;49.432;8.680;2022-12-18T14:50:43;7.43;;;4.90;;
10416;SDS011;62605;49.432;8.680;2022-12-18T14:53:18;14.03;;;6.73;;
10416;SDS011;62605;49.432;8.680;2022-12-18T14:55:49;3.30;;;2.63;;
10416;SDS011;62605;49.432;8.680;2022-12-18T14:58:16;20.70;;;8.10;;
10416;SDS011;62605;49.432;8.680;2022-12-18T15:00:45;20.40;;;7.27;;
10416;SDS011;62605;49.432;8.680;2022-12-18T15:03:13;12.00;;;4.83;;
10416;SDS011;62605;49.432;8.680;2022-12-18T15:05:45;19.10;;;7.13;;
10416;SDS011;62605;49.432;8.680;2022-12-18T15:11:01;16.10;;;7.37;;
10416;SDS011;62605;49.432;8.680;2022-12-18T15:13:28;15.77;;;7.10;;
10416;SDS011;62605;49.432;8.680;2022-12-18T15:15:59;16.63;;;5.57;;